If you wish to contribute or participate in the discussions about articles you are invited to join SKYbrary as a registered user

 Actions

Blagoveshchensk/Ignatyevo Airport

From SKYbrary Wiki

UHBB
Airport
ICAO: UHBB
Summary
Name Blagoveshchensk/Ignatyevo Airport
Region Europe
Territory Russian Federation RU.gif
Location Blagoveshchensk
Serving
Coordinates 50° 25' 30.00" N, 127° 24' 48.00" E
Runways
Designator Length Width Surface ROPS
18/36 2821 m9,255.249 ft
45 m147.638 ft
ASP /


METAR
Observation UHBB 231400Z 34002MPS 9999 FEW033 02/00 Q1005 R36/090060 NOSIG RMK QFE737/0982
Station BLAGOVESHCHENSK
Date/Time 23 April 2019 14:00:00
Wind direction 340°
Wind speed kts
Lowest cloud amount few clouds
Temperature 2°C
Dew point 0°C
Humidity 86%
QNH 1005 hPa
Weather condition n/a


Ignatyevo Airport

ICAO: UHBB IATA: BQS

Description

Ignatyevo Airport is a large airport in Russia located 20 km10.799 nm
20,000 m
65,616.798 ft
northwest of Blagoveshchensk.

Climatology

Subarctic climate (Köppen climate classification Dfc) - long, usually very cold winters, and short, cool to mild summers

Maps

Terrain

Loading map...

Airport Layout

Loading map...


Accidents & Serious Incidents at or in vicinity of UHBB

None on SKYbrary